sensor_id;sensor_type;location;lat;lon;timestamp;P1;durP1;ratioP1;P2;durP2;ratioP2
69569;SDS011;56781;42.292;23.146;2022-07-25T00:00:30;14.40;;;7.00;;
69569;SDS011;56781;42.292;23.146;2022-07-25T00:02:57;13.05;;;7.50;;
69569;SDS011;56781;42.292;23.146;2022-07-25T00:05:24;13.85;;;7.53;;
69569;SDS011;56781;42.292;23.146;2022-07-25T00:07:52;15.50;;;7.95;;
69569;SDS011;56781;42.292;23.146;2022-07-25T00:10:20;14.60;;;8.25;;
69569;SDS011;56781;42.292;23.146;2022-07-25T00:12:47;15.50;;;7.90;;
69569;SDS011;56781;42.292;23.146;2022-07-25T00:15:14;15.00;;;8.10;;
69569;SDS011;56781;42.292;23.146;2022-07-25T00:17:41;14.77;;;7.70;;
69569;SDS011;56781;42.292;23.146;2022-07-25T00:20:09;14.27;;;7.78;;
69569;SDS011;56781;42.292;23.146;2022-07-25T00:22:36;14.68;;;7.75;;
69569;SDS011;56781;42.292;23.146;2022-07-25T00:25:03;14.70;;;7.97;;
69569;SDS011;56781;42.292;23.146;2022-07-25T00:27:31;15.18;;;8.15;;
69569;SDS011;56781;42.292;23.146;2022-07-25T00:29:58;16.08;;;8.82;;
69569;SDS011;56781;42.292;23.146;2022-07-25T00:32:25;16.42;;;8.32;;
69569;SDS011;56781;42.292;23.146;2022-07-25T00:34:52;14.82;;;7.90;;
69569;SDS011;56781;42.292;23.146;2022-07-25T00:37:20;14.17;;;8.07;;
69569;SDS011;56781;42.292;23.146;2022-07-25T00:39:47;17.95;;;9.20;;
69569;SDS011;56781;42.292;23.146;2022-07-25T00:42:15;16.00;;;8.40;;
69569;SDS011;56781;42.292;23.146;2022-07-25T00:44:42;16.60;;;8.00;;
69569;SDS011;56781;42.292;23.146;2022-07-25T00:47:09;17.80;;;8.95;;
69569;SDS011;56781;42.292;23.146;2022-07-25T00:49:36;17.23;;;9.30;;
69569;SDS011;56781;42.292;23.146;2022-07-25T00:52:03;17.33;;;9.27;;
69569;SDS011;56781;42.292;23.146;2022-07-25T00:54:31;17.00;;;9.98;;
69569;SDS011;56781;42.292;23.146;2022-07-25T00:56:59;17.13;;;9.32;;
69569;SDS011;56781;42.292;23.146;2022-07-25T00:59:27;16.20;;;8.82;;
69569;SDS011;56781;42.292;23.146;2022-07-25T01:01:55;17.57;;;9.07;;
69569;SDS011;56781;42.292;23.146;2022-07-25T01:04:22;15.00;;;8.82;;
69569;SDS011;56781;42.292;23.146;2022-07-25T01:06:50;16.27;;;9.48;;
69569;SDS011;56781;42.292;23.146;2022-07-25T01:09:17;17.17;;;8.18;;
69569;SDS011;56781;42.292;23.146;2022-07-25T01:11:46;15.23;;;8.38;;
69569;SDS011;56781;42.292;23.146;2022-07-25T01:14:13;14.87;;;8.37;;
69569;SDS011;56781;42.292;23.146;2022-07-25T01:16:40;13.93;;;8.20;;
69569;SDS011;56781;42.292;23.146;2022-07-25T01:19:07;14.77;;;8.10;;
69569;SDS011;56781;42.292;23.146;2022-07-25T01:21:38;18.67;;;9.13;;
69569;SDS011;56781;42.292;23.146;2022-07-25T01:24:09;14.27;;;8.52;;
69569;SDS011;56781;42.292;23.146;2022-07-25T01:26:37;15.33;;;8.87;;
69569;SDS011;56781;42.292;23.146;2022-07-25T01:29:04;15.65;;;8.68;;
69569;SDS011;56781;42.292;23.146;2022-07-25T01:31:32;17.38;;;8.32;;
69569;SDS011;56781;42.292;23.146;2022-07-25T01:33:59;14.75;;;7.72;;
69569;SDS011;56781;42.292;23.146;2022-07-25T01:36:26;15.25;;;8.60;;
69569;SDS011;56781;42.292;23.146;2022-07-25T01:38:54;17.37;;;9.17;;
69569;SDS011;56781;42.292;23.146;2022-07-25T01:41:21;15.55;;;9.18;;
69569;SDS011;56781;42.292;23.146;2022-07-25T01:43:48;15.05;;;8.68;;
69569;SDS011;56781;42.292;23.146;2022-07-25T01:46:16;17.40;;;8.85;;
69569;SDS011;56781;42.292;23.146;2022-07-25T01:48:43;21.30;;;9.77;;
69569;SDS011;56781;42.292;23.146;2022-07-25T01:51:10;20.77;;;10.07;;
69569;SDS011;56781;42.292;23.146;2022-07-25T01:53:38;19.63;;;10.43;;
69569;SDS011;56781;42.292;23.146;2022-07-25T01:56:08;16.83;;;9.65;;
69569;SDS011;56781;42.292;23.146;2022-07-25T01:58:37;19.17;;;10.85;;
69569;SDS011;56781;42.292;23.146;2022-07-25T02:01:04;21.05;;;10.93;;
69569;SDS011;56781;42.292;23.146;2022-07-25T02:03:31;20.37;;;10.40;;
69569;SDS011;56781;42.292;23.146;2022-07-25T02:06:03;20.67;;;10.80;;
69569;SDS011;56781;42.292;23.146;2022-07-25T02:08:33;20.83;;;10.65;;
69569;SDS011;56781;42.292;23.146;2022-07-25T02:11:00;19.27;;;10.23;;
69569;SDS011;56781;42.292;23.146;2022-07-25T02:13:27;17.83;;;10.30;;
69569;SDS011;56781;42.292;23.146;2022-07-25T02:15:55;20.67;;;10.93;;
69569;SDS011;56781;42.292;23.146;2022-07-25T02:18:22;18.90;;;10.68;;
69569;SDS011;56781;42.292;23.146;2022-07-25T02:20:49;20.58;;;11.40;;
69569;SDS011;56781;42.292;23.146;2022-07-25T02:23:17;19.40;;;10.70;;
69569;SDS011;56781;42.292;23.146;2022-07-25T02:25:44;23.33;;;11.35;;
69569;SDS011;56781;42.292;23.146;2022-07-25T02:28:11;23.67;;;11.87;;
69569;SDS011;56781;42.292;23.146;2022-07-25T02:30:38;20.15;;;11.05;;
69569;SDS011;56781;42.292;23.146;2022-07-25T02:33:05;20.05;;;10.90;;
69569;SDS011;56781;42.292;23.146;2022-07-25T02:35:32;20.65;;;10.82;;
69569;SDS011;56781;42.292;23.146;2022-07-25T02:38:00;18.40;;;10.30;;
69569;SDS011;56781;42.292;23.146;2022-07-25T02:40:27;18.80;;;10.33;;
69569;SDS011;56781;42.292;23.146;2022-07-25T02:42:54;21.00;;;11.82;;
69569;SDS011;56781;42.292;23.146;2022-07-25T02:45:21;21.15;;;11.43;;
69569;SDS011;56781;42.292;23.146;2022-07-25T02:47:49;21.98;;;11.50;;
69569;SDS011;56781;42.292;23.146;2022-07-25T02:50:16;22.63;;;11.48;;
69569;SDS011;56781;42.292;23.146;2022-07-25T02:52:43;19.93;;;10.40;;
69569;SDS011;56781;42.292;23.146;2022-07-25T02:55:10;23.70;;;11.63;;
69569;SDS011;56781;42.292;23.146;2022-07-25T02:57:39;20.00;;;11.07;;
69569;SDS011;56781;42.292;23.146;2022-07-25T03:00:06;22.83;;;11.43;;
69569;SDS011;56781;42.292;23.146;2022-07-25T03:02:34;23.88;;;12.68;;
69569;SDS011;56781;42.292;23.146;2022-07-25T03:05:01;23.67;;;13.03;;
69569;SDS011;56781;42.292;23.146;2022-07-25T03:07:32;21.00;;;11.90;;
69569;SDS011;56781;42.292;23.146;2022-07-25T03:09:59;23.38;;;12.80;;
69569;SDS011;56781;42.292;23.146;2022-07-25T03:12:33;25.20;;;13.10;;
69569;SDS011;56781;42.292;23.146;2022-07-25T03:15:02;23.08;;;12.55;;
69569;SDS011;56781;42.292;23.146;2022-07-25T03:17:30;20.90;;;11.57;;
69569;SDS011;56781;42.292;23.146;2022-07-25T03:19:58;19.35;;;10.52;;
69569;SDS011;56781;42.292;23.146;2022-07-25T03:22:25;20.02;;;11.02;;
69569;SDS011;56781;42.292;23.146;2022-07-25T03:24:52;19.23;;;10.38;;
69569;SDS011;56781;42.292;23.146;2022-07-25T03:27:19;19.02;;;10.10;;
69569;SDS011;56781;42.292;23.146;2022-07-25T03:29:47;18.90;;;10.40;;
69569;SDS011;56781;42.292;23.146;2022-07-25T03:32:14;20.27;;;10.73;;
69569;SDS011;56781;42.292;23.146;2022-07-25T03:34:42;19.02;;;10.63;;
69569;SDS011;56781;42.292;23.146;2022-07-25T03:37:09;20.25;;;10.00;;
69569;SDS011;56781;42.292;23.146;2022-07-25T03:39:36;19.70;;;10.77;;
69569;SDS011;56781;42.292;23.146;2022-07-25T03:42:03;17.30;;;9.33;;
69569;SDS011;56781;42.292;23.146;2022-07-25T03:44:30;17.02;;;9.60;;
69569;SDS011;56781;42.292;23.146;2022-07-25T03:46:58;21.25;;;10.57;;
69569;SDS011;56781;42.292;23.146;2022-07-25T03:49:25;16.05;;;9.52;;
69569;SDS011;56781;42.292;23.146;2022-07-25T03:51:52;17.75;;;9.95;;
69569;SDS011;56781;42.292;23.146;2022-07-25T03:54:19;25.27;;;9.60;;
69569;SDS011;56781;42.292;23.146;2022-07-25T03:56:47;17.13;;;9.23;;
69569;SDS011;56781;42.292;23.146;2022-07-25T03:59:16;16.42;;;8.80;;
69569;SDS011;56781;42.292;23.146;2022-07-25T04:01:45;19.65;;;11.15;;
69569;SDS011;56781;42.292;23.146;2022-07-25T04:04:15;20.95;;;11.10;;
69569;SDS011;56781;42.292;23.146;2022-07-25T04:06:43;20.50;;;10.60;;
69569;SDS011;56781;42.292;23.146;2022-07-25T04:09:11;21.30;;;10.95;;
69569;SDS011;56781;42.292;23.146;2022-07-25T04:11:38;20.38;;;11.20;;
69569;SDS011;56781;42.292;23.146;2022-07-25T04:14:06;20.77;;;11.52;;
69569;SDS011;56781;42.292;23.146;2022-07-25T04:16:34;22.17;;;11.75;;
69569;SDS011;56781;42.292;23.146;2022-07-25T04:19:02;22.40;;;12.23;;
69569;SDS011;56781;42.292;23.146;2022-07-25T04:21:31;22.27;;;12.25;;
69569;SDS011;56781;42.292;23.146;2022-07-25T04:23:58;18.75;;;11.48;;
69569;SDS011;56781;42.292;23.146;2022-07-25T04:26:26;22.98;;;11.38;;
69569;SDS011;56781;42.292;23.146;2022-07-25T04:28:53;19.77;;;11.32;;
69569;SDS011;56781;42.292;23.146;2022-07-25T04:31:20;17.97;;;9.73;;
69569;SDS011;56781;42.292;23.146;2022-07-25T04:33:47;19.08;;;10.90;;
69569;SDS011;56781;42.292;23.146;2022-07-25T04:36:15;19.58;;;11.23;;
69569;SDS011;56781;42.292;23.146;2022-07-25T04:38:42;20.33;;;10.32;;
69569;SDS011;56781;42.292;23.146;2022-07-25T04:41:09;20.35;;;10.02;;
69569;SDS011;56781;42.292;23.146;2022-07-25T04:43:37;18.77;;;9.90;;
69569;SDS011;56781;42.292;23.146;2022-07-25T04:46:04;19.42;;;10.15;;
69569;SDS011;56781;42.292;23.146;2022-07-25T04:48:31;18.70;;;10.43;;
69569;SDS011;56781;42.292;23.146;2022-07-25T04:50:59;19.58;;;11.38;;
69569;SDS011;56781;42.292;23.146;2022-07-25T04:53:26;21.15;;;11.77;;
69569;SDS011;56781;42.292;23.146;2022-07-25T04:55:53;20.50;;;11.37;;
69569;SDS011;56781;42.292;23.146;2022-07-25T04:58:21;23.48;;;12.15;;
69569;SDS011;56781;42.292;23.146;2022-07-25T05:00:48;21.58;;;12.25;;
69569;SDS011;56781;42.292;23.146;2022-07-25T05:03:15;21.27;;;11.60;;
69569;SDS011;56781;42.292;23.146;2022-07-25T05:05:43;18.27;;;10.15;;
69569;SDS011;56781;42.292;23.146;2022-07-25T05:08:10;19.70;;;10.83;;
69569;SDS011;56781;42.292;23.146;2022-07-25T05:10:37;18.92;;;11.02;;
69569;SDS011;56781;42.292;23.146;2022-07-25T05:13:04;22.05;;;11.00;;
69569;SDS011;56781;42.292;23.146;2022-07-25T05:15:32;19.13;;;11.15;;
69569;SDS011;56781;42.292;23.146;2022-07-25T05:17:59;20.88;;;11.00;;
69569;SDS011;56781;42.292;23.146;2022-07-25T05:20:27;17.83;;;10.20;;
69569;SDS011;56781;42.292;23.146;2022-07-25T05:22:54;19.45;;;10.73;;
69569;SDS011;56781;42.292;23.146;2022-07-25T05:25:22;19.60;;;10.75;;
69569;SDS011;56781;42.292;23.146;2022-07-25T05:27:49;19.73;;;9.80;;
69569;SDS011;56781;42.292;23.146;2022-07-25T05:30:17;17.40;;;9.75;;
69569;SDS011;56781;42.292;23.146;2022-07-25T05:32:53;17.27;;;9.80;;
69569;SDS011;56781;42.292;23.146;2022-07-25T05:35:20;17.27;;;9.70;;
69569;SDS011;56781;42.292;23.146;2022-07-25T05:37:47;17.85;;;9.68;;
69569;SDS011;56781;42.292;23.146;2022-07-25T05:40:15;17.15;;;10.00;;
69569;SDS011;56781;42.292;23.146;2022-07-25T05:42:44;17.38;;;9.90;;
69569;SDS011;56781;42.292;23.146;2022-07-25T05:45:11;20.00;;;10.07;;
69569;SDS011;56781;42.292;23.146;2022-07-25T05:47:38;16.70;;;9.88;;
69569;SDS011;56781;42.292;23.146;2022-07-25T05:50:06;17.52;;;10.45;;
69569;SDS011;56781;42.292;23.146;2022-07-25T05:52:33;14.70;;;8.57;;
69569;SDS011;56781;42.292;23.146;2022-07-25T05:55:01;14.52;;;8.15;;
69569;SDS011;56781;42.292;23.146;2022-07-25T05:57:28;14.90;;;8.97;;
69569;SDS011;56781;42.292;23.146;2022-07-25T05:59:55;14.35;;;9.20;;
69569;SDS011;56781;42.292;23.146;2022-07-25T06:02:22;15.70;;;9.38;;
69569;SDS011;56781;42.292;23.146;2022-07-25T06:04:49;17.27;;;10.40;;
69569;SDS011;56781;42.292;23.146;2022-07-25T06:07:16;16.85;;;9.68;;
69569;SDS011;56781;42.292;23.146;2022-07-25T06:09:43;15.97;;;9.20;;
69569;SDS011;56781;42.292;23.146;2022-07-25T06:12:11;16.45;;;9.68;;
69569;SDS011;56781;42.292;23.146;2022-07-25T06:14:39;17.13;;;10.10;;
69569;SDS011;56781;42.292;23.146;2022-07-25T06:17:06;17.75;;;10.63;;
69569;SDS011;56781;42.292;23.146;2022-07-25T06:19:33;18.55;;;10.25;;
69569;SDS011;56781;42.292;23.146;2022-07-25T06:22:00;16.80;;;10.27;;
69569;SDS011;56781;42.292;23.146;2022-07-25T06:24:28;21.98;;;13.30;;
69569;SDS011;56781;42.292;23.146;2022-07-25T06:26:55;20.92;;;10.70;;
69569;SDS011;56781;42.292;23.146;2022-07-25T06:29:22;15.20;;;9.45;;
69569;SDS011;56781;42.292;23.146;2022-07-25T06:31:49;15.18;;;9.65;;
69569;SDS011;56781;42.292;23.146;2022-07-25T06:34:16;16.43;;;10.33;;
69569;SDS011;56781;42.292;23.146;2022-07-25T06:36:43;17.90;;;10.00;;
69569;SDS011;56781;42.292;23.146;2022-07-25T06:39:10;18.45;;;11.02;;
69569;SDS011;56781;42.292;23.146;2022-07-25T06:41:37;17.60;;;11.32;;
69569;SDS011;56781;42.292;23.146;2022-07-25T06:44:04;16.13;;;10.32;;
69569;SDS011;56781;42.292;23.146;2022-07-25T06:46:31;16.43;;;10.30;;
69569;SDS011;56781;42.292;23.146;2022-07-25T06:48:59;15.15;;;9.98;;
69569;SDS011;56781;42.292;23.146;2022-07-25T06:51:26;17.00;;;10.60;;
69569;SDS011;56781;42.292;23.146;2022-07-25T06:53:53;17.65;;;9.88;;
69569;SDS011;56781;42.292;23.146;2022-07-25T06:56:20;16.60;;;10.82;;
69569;SDS011;56781;42.292;23.146;2022-07-25T06:58:47;16.37;;;10.60;;
69569;SDS011;56781;42.292;23.146;2022-07-25T07:01:14;16.48;;;10.38;;
69569;SDS011;56781;42.292;23.146;2022-07-25T07:03:41;16.92;;;10.75;;
69569;SDS011;56781;42.292;23.146;2022-07-25T07:06:08;15.65;;;10.02;;
69569;SDS011;56781;42.292;23.146;2022-07-25T07:08:35;17.77;;;10.35;;
69569;SDS011;56781;42.292;23.146;2022-07-25T07:11:03;15.07;;;9.73;;
69569;SDS011;56781;42.292;23.146;2022-07-25T07:13:31;15.15;;;9.50;;
69569;SDS011;56781;42.292;23.146;2022-07-25T07:15:58;15.02;;;10.05;;
69569;SDS011;56781;42.292;23.146;2022-07-25T07:18:25;15.63;;;10.35;;
69569;SDS011;56781;42.292;23.146;2022-07-25T07:20:52;15.98;;;10.10;;
69569;SDS011;56781;42.292;23.146;2022-07-25T07:23:19;17.20;;;9.70;;
69569;SDS011;56781;42.292;23.146;2022-07-25T07:25:50;15.65;;;9.40;;
69569;SDS011;56781;42.292;23.146;2022-07-25T07:28:17;15.95;;;9.60;;
69569;SDS011;56781;42.292;23.146;2022-07-25T07:30:44;14.27;;;9.00;;
69569;SDS011;56781;42.292;23.146;2022-07-25T07:33:31;13.27;;;8.13;;
69569;SDS011;56781;42.292;23.146;2022-07-25T07:35:59;11.80;;;7.20;;
69569;SDS011;56781;42.292;23.146;2022-07-25T07:38:27;11.15;;;8.13;;
69569;SDS011;56781;42.292;23.146;2022-07-25T07:40:54;13.32;;;7.07;;
69569;SDS011;56781;42.292;23.146;2022-07-25T07:43:21;12.38;;;6.82;;
69569;SDS011;56781;42.292;23.146;2022-07-25T07:45:55;11.00;;;7.38;;
69569;SDS011;56781;42.292;23.146;2022-07-25T07:48:30;10.63;;;6.87;;
69569;SDS011;56781;42.292;23.146;2022-07-25T07:50:59;10.98;;;7.15;;
69569;SDS011;56781;42.292;23.146;2022-07-25T07:53:27;12.32;;;7.10;;
69569;SDS011;56781;42.292;23.146;2022-07-25T07:56:13;10.50;;;6.68;;
69569;SDS011;56781;42.292;23.146;2022-07-25T07:58:41;11.27;;;7.22;;
69569;SDS011;56781;42.292;23.146;2022-07-25T08:01:09;9.30;;;6.60;;
69569;SDS011;56781;42.292;23.146;2022-07-25T08:03:36;10.18;;;6.97;;
69569;SDS011;56781;42.292;23.146;2022-07-25T08:06:03;11.55;;;6.70;;
69569;SDS011;56781;42.292;23.146;2022-07-25T08:08:31;11.02;;;7.00;;
69569;SDS011;56781;42.292;23.146;2022-07-25T08:10:58;11.77;;;6.93;;
69569;SDS011;56781;42.292;23.146;2022-07-25T08:13:29;12.63;;;6.83;;
69569;SDS011;56781;42.292;23.146;2022-07-25T08:16:00;10.65;;;6.93;;
69569;SDS011;56781;42.292;23.146;2022-07-25T08:18:29;12.48;;;6.95;;
69569;SDS011;56781;42.292;23.146;2022-07-25T08:20:58;9.52;;;6.90;;
69569;SDS011;56781;42.292;23.146;2022-07-25T08:23:28;9.70;;;6.32;;
69569;SDS011;56781;42.292;23.146;2022-07-25T08:25:57;12.07;;;7.07;;
69569;SDS011;56781;42.292;23.146;2022-07-25T08:28:24;9.73;;;6.22;;
69569;SDS011;56781;42.292;23.146;2022-07-25T08:30:52;10.95;;;6.93;;
69569;SDS011;56781;42.292;23.146;2022-07-25T08:33:20;10.60;;;6.68;;
69569;SDS011;56781;42.292;23.146;2022-07-25T08:35:48;10.52;;;7.03;;
69569;SDS011;56781;42.292;23.146;2022-07-25T08:38:20;11.30;;;6.90;;
69569;SDS011;56781;42.292;23.146;2022-07-25T08:40:48;10.85;;;6.90;;
69569;SDS011;56781;42.292;23.146;2022-07-25T08:43:16;10.63;;;6.82;;
69569;SDS011;56781;42.292;23.146;2022-07-25T08:45:45;9.38;;;6.32;;
69569;SDS011;56781;42.292;23.146;2022-07-25T08:48:16;10.15;;;6.45;;
69569;SDS011;56781;42.292;23.146;2022-07-25T08:50:48;10.53;;;6.33;;
69569;SDS011;56781;42.292;23.146;2022-07-25T08:53:16;9.20;;;6.28;;
69569;SDS011;56781;42.292;23.146;2022-07-25T08:56:04;9.80;;;5.97;;
69569;SDS011;56781;42.292;23.146;2022-07-25T08:58:44;10.15;;;5.93;;
69569;SDS011;56781;42.292;23.146;2022-07-25T09:01:11;9.27;;;6.13;;
69569;SDS011;56781;42.292;23.146;2022-07-25T09:03:40;8.60;;;5.47;;
69569;SDS011;56781;42.292;23.146;2022-07-25T09:06:13;8.45;;;5.60;;
69569;SDS011;56781;42.292;23.146;2022-07-25T09:08:54;8.77;;;5.90;;
69569;SDS011;56781;42.292;23.146;2022-07-25T09:11:31;10.18;;;6.30;;
69569;SDS011;56781;42.292;23.146;2022-07-25T09:14:01;8.70;;;6.45;;
69569;SDS011;56781;42.292;23.146;2022-07-25T09:16:41;9.03;;;5.57;;
69569;SDS011;56781;42.292;23.146;2022-07-25T09:19:17;9.20;;;6.10;;
69569;SDS011;56781;42.292;23.146;2022-07-25T09:22:00;9.88;;;6.05;;
69569;SDS011;56781;42.292;23.146;2022-07-25T09:24:29;11.52;;;6.50;;
69569;SDS011;56781;42.292;23.146;2022-07-25T09:26:58;10.00;;;6.50;;
69569;SDS011;56781;42.292;23.146;2022-07-25T09:29:31;11.53;;;6.57;;
69569;SDS011;56781;42.292;23.146;2022-07-25T09:32:00;8.73;;;5.35;;
69569;SDS011;56781;42.292;23.146;2022-07-25T09:34:39;8.98;;;5.88;;
69569;SDS011;56781;42.292;23.146;2022-07-25T09:37:09;9.32;;;6.05;;
69569;SDS011;56781;42.292;23.146;2022-07-25T09:39:42;7.90;;;5.40;;
69569;SDS011;56781;42.292;23.146;2022-07-25T09:42:24;8.23;;;5.53;;
69569;SDS011;56781;42.292;23.146;2022-07-25T09:44:57;9.77;;;6.50;;
69569;SDS011;56781;42.292;23.146;2022-07-25T09:47:32;9.77;;;6.38;;
69569;SDS011;56781;42.292;23.146;2022-07-25T09:50:01;10.38;;;6.80;;
69569;SDS011;56781;42.292;23.146;2022-07-25T09:52:29;10.63;;;7.20;;
69569;SDS011;56781;42.292;23.146;2022-07-25T09:54:57;10.50;;;6.67;;
69569;SDS011;56781;42.292;23.146;2022-07-25T09:57:24;8.93;;;5.50;;
69569;SDS011;56781;42.292;23.146;2022-07-25T09:59:51;8.63;;;6.25;;
69569;SDS011;56781;42.292;23.146;2022-07-25T10:07:37;8.13;;;5.87;;
69569;SDS011;56781;42.292;23.146;2022-07-25T10:10:07;8.48;;;5.70;;
69569;SDS011;56781;42.292;23.146;2022-07-25T10:12:34;9.70;;;5.80;;
69569;SDS011;56781;42.292;23.146;2022-07-25T10:15:11;10.07;;;5.80;;
69569;SDS011;56781;42.292;23.146;2022-07-25T10:17:40;12.07;;;5.75;;
69569;SDS011;56781;42.292;23.146;2022-07-25T10:20:08;8.90;;;5.50;;
69569;SDS011;56781;42.292;23.146;2022-07-25T10:22:36;8.48;;;5.25;;
69569;SDS011;56781;42.292;23.146;2022-07-25T10:25:22;6.88;;;4.63;;
69569;SDS011;56781;42.292;23.146;2022-07-25T10:27:51;7.63;;;4.68;;
69569;SDS011;56781;42.292;23.146;2022-07-25T10:30:27;6.47;;;4.20;;
69569;SDS011;56781;42.292;23.146;2022-07-25T10:33:02;7.33;;;4.00;;
69569;SDS011;56781;42.292;23.146;2022-07-25T10:35:36;5.95;;;4.20;;
69569;SDS011;56781;42.292;23.146;2022-07-25T10:38:04;6.90;;;4.40;;
69569;SDS011;56781;42.292;23.146;2022-07-25T10:40:33;6.63;;;4.20;;
69569;SDS011;56781;42.292;23.146;2022-07-25T10:43:14;7.55;;;4.78;;
69569;SDS011;56781;42.292;23.146;2022-07-25T10:45:50;7.33;;;4.70;;
69569;SDS011;56781;42.292;23.146;2022-07-25T10:48:20;8.38;;;5.03;;
69569;SDS011;56781;42.292;23.146;2022-07-25T11:01:22;6.05;;;3.50;;
69569;SDS011;56781;42.292;23.146;2022-07-25T11:03:52;6.47;;;3.83;;
69569;SDS011;56781;42.292;23.146;2022-07-25T11:06:34;8.02;;;4.25;;
69569;SDS011;56781;42.292;23.146;2022-07-25T11:09:40;6.03;;;3.95;;
69569;SDS011;56781;42.292;23.146;2022-07-25T11:11:59;6.27;;;3.87;;
69569;SDS011;56781;42.292;23.146;2022-07-25T11:14:39;6.82;;;4.00;;
69569;SDS011;56781;42.292;23.146;2022-07-25T11:17:11;5.95;;;3.90;;
69569;SDS011;56781;42.292;23.146;2022-07-25T11:19:54;7.25;;;4.40;;
69569;SDS011;56781;42.292;23.146;2022-07-25T11:22:24;6.82;;;4.20;;
69569;SDS011;56781;42.292;23.146;2022-07-25T11:24:53;6.33;;;4.00;;
69569;SDS011;56781;42.292;23.146;2022-07-25T11:27:21;6.07;;;3.85;;
69569;SDS011;56781;42.292;23.146;2022-07-25T11:29:50;6.43;;;4.35;;
69569;SDS011;56781;42.292;23.146;2022-07-25T11:32:17;6.65;;;4.00;;
69569;SDS011;56781;42.292;23.146;2022-07-25T11:34:49;6.93;;;4.00;;
69569;SDS011;56781;42.292;23.146;2022-07-25T11:37:19;6.90;;;4.20;;
69569;SDS011;56781;42.292;23.146;2022-07-25T11:39:47;7.40;;;4.10;;
69569;SDS011;56781;42.292;23.146;2022-07-25T11:42:18;6.43;;;4.13;;
69569;SDS011;56781;42.292;23.146;2022-07-25T11:44:48;8.88;;;4.38;;
69569;SDS011;56781;42.292;23.146;2022-07-25T11:47:27;6.60;;;4.32;;
69569;SDS011;56781;42.292;23.146;2022-07-25T11:49:57;6.70;;;4.40;;
69569;SDS011;56781;42.292;23.146;2022-07-25T11:52:31;6.80;;;4.53;;
69569;SDS011;56781;42.292;23.146;2022-07-25T12:10:51;5.55;;;4.30;;
69569;SDS011;56781;42.292;23.146;2022-07-25T12:13:24;6.53;;;4.45;;
69569;SDS011;56781;42.292;23.146;2022-07-25T12:15:54;6.57;;;4.40;;
69569;SDS011;56781;42.292;23.146;2022-07-25T12:18:25;6.63;;;4.15;;
69569;SDS011;56781;42.292;23.146;2022-07-25T12:20:55;6.93;;;4.43;;
69569;SDS011;56781;42.292;23.146;2022-07-25T12:23:25;6.03;;;4.38;;
69569;SDS011;56781;42.292;23.146;2022-07-25T12:25:52;7.03;;;4.50;;
69569;SDS011;56781;42.292;23.146;2022-07-25T12:28:21;7.43;;;4.10;;
69569;SDS011;56781;42.292;23.146;2022-07-25T12:31:02;6.43;;;4.43;;
69569;SDS011;56781;42.292;23.146;2022-07-25T12:33:38;7.63;;;4.70;;
69569;SDS011;56781;42.292;23.146;2022-07-25T12:36:17;7.15;;;4.32;;
69569;SDS011;56781;42.292;23.146;2022-07-25T12:39:07;7.07;;;4.70;;
69569;SDS011;56781;42.292;23.146;2022-07-25T12:41:35;6.93;;;4.77;;
69569;SDS011;56781;42.292;23.146;2022-07-25T12:44:08;8.73;;;4.45;;
69569;SDS011;56781;42.292;23.146;2022-07-25T12:46:44;7.10;;;4.68;;
69569;SDS011;56781;42.292;23.146;2022-07-25T12:49:28;7.13;;;4.72;;
69569;SDS011;56781;42.292;23.146;2022-07-25T12:51:58;6.90;;;4.47;;
69569;SDS011;56781;42.292;23.146;2022-07-25T12:54:28;7.93;;;4.70;;
69569;SDS011;56781;42.292;23.146;2022-07-25T12:57:15;7.55;;;4.57;;
69569;SDS011;56781;42.292;23.146;2022-07-25T12:59:45;9.57;;;4.90;;
69569;SDS011;56781;42.292;23.146;2022-07-25T13:02:33;6.90;;;5.07;;
69569;SDS011;56781;42.292;23.146;2022-07-25T13:05:07;6.82;;;4.20;;
69569;SDS011;56781;42.292;23.146;2022-07-25T13:07:35;7.80;;;4.90;;
69569;SDS011;56781;42.292;23.146;2022-07-25T13:10:03;6.57;;;4.65;;
69569;SDS011;56781;42.292;23.146;2022-07-25T13:12:32;6.70;;;4.63;;
69569;SDS011;56781;42.292;23.146;2022-07-25T13:15:00;6.50;;;4.57;;
69569;SDS011;56781;42.292;23.146;2022-07-25T13:17:41;6.93;;;4.65;;
69569;SDS011;56781;42.292;23.146;2022-07-25T13:20:12;7.20;;;4.77;;
69569;SDS011;56781;42.292;23.146;2022-07-25T13:22:41;8.18;;;4.65;;
69569;SDS011;56781;42.292;23.146;2022-07-25T13:25:33;6.28;;;4.28;;
69569;SDS011;56781;42.292;23.146;2022-07-25T13:28:03;7.00;;;4.93;;
69569;SDS011;56781;42.292;23.146;2022-07-25T13:30:53;6.68;;;4.30;;
69569;SDS011;56781;42.292;23.146;2022-07-25T13:33:33;7.03;;;4.77;;
69569;SDS011;56781;42.292;23.146;2022-07-25T13:36:11;6.90;;;4.80;;
69569;SDS011;56781;42.292;23.146;2022-07-25T13:38:38;6.90;;;4.68;;
69569;SDS011;56781;42.292;23.146;2022-07-25T13:41:42;6.22;;;4.15;;
69569;SDS011;56781;42.292;23.146;2022-07-25T13:44:39;7.45;;;4.65;;
69569;SDS011;56781;42.292;23.146;2022-07-25T13:47:11;7.70;;;4.80;;
69569;SDS011;56781;42.292;23.146;2022-07-25T13:49:51;6.75;;;4.75;;
69569;SDS011;56781;42.292;23.146;2022-07-25T13:52:18;6.93;;;4.63;;
69569;SDS011;56781;42.292;23.146;2022-07-25T13:55:09;7.75;;;5.03;;
69569;SDS011;56781;42.292;23.146;2022-07-25T13:57:40;6.97;;;4.90;;
69569;SDS011;56781;42.292;23.146;2022-07-25T14:00:25;8.40;;;4.53;;
69569;SDS011;56781;42.292;23.146;2022-07-25T14:02:52;7.07;;;4.80;;
69569;SDS011;56781;42.292;23.146;2022-07-25T14:05:20;6.93;;;4.85;;
69569;SDS011;56781;42.292;23.146;2022-07-25T14:07:58;7.60;;;5.22;;
69569;SDS011;56781;42.292;23.146;2022-07-25T14:10:40;7.05;;;4.57;;
69569;SDS011;56781;42.292;23.146;2022-07-25T14:13:11;6.83;;;4.53;;
69569;SDS011;56781;42.292;23.146;2022-07-25T14:15:43;8.23;;;4.80;;
69569;SDS011;56781;42.292;23.146;2022-07-25T14:18:15;8.65;;;4.68;;
69569;SDS011;56781;42.292;23.146;2022-07-25T14:21:04;6.60;;;4.40;;
69569;SDS011;56781;42.292;23.146;2022-07-25T14:23:35;6.90;;;4.85;;
69569;SDS011;56781;42.292;23.146;2022-07-25T14:26:15;6.47;;;4.60;;
69569;SDS011;56781;42.292;23.146;2022-07-25T14:29:03;7.28;;;4.90;;
69569;SDS011;56781;42.292;23.146;2022-07-25T14:31:55;6.95;;;4.63;;
69569;SDS011;56781;42.292;23.146;2022-07-25T14:34:24;6.88;;;4.65;;
69569;SDS011;56781;42.292;23.146;2022-07-25T14:37:12;6.35;;;4.40;;
69569;SDS011;56781;42.292;23.146;2022-07-25T14:40:01;7.00;;;4.90;;
69569;SDS011;56781;42.292;23.146;2022-07-25T14:42:38;7.45;;;4.68;;
69569;SDS011;56781;42.292;23.146;2022-07-25T14:45:14;7.00;;;4.70;;
69569;SDS011;56781;42.292;23.146;2022-07-25T14:47:48;7.00;;;4.40;;
69569;SDS011;56781;42.292;23.146;2022-07-25T14:50:27;6.50;;;4.82;;
69569;SDS011;56781;42.292;23.146;2022-07-25T14:53:09;6.93;;;4.73;;
69569;SDS011;56781;42.292;23.146;2022-07-25T14:55:46;6.50;;;4.35;;
69569;SDS011;56781;42.292;23.146;2022-07-25T14:58:26;6.20;;;4.63;;
69569;SDS011;56781;42.292;23.146;2022-07-25T15:01:06;6.97;;;4.53;;
69569;SDS011;56781;42.292;23.146;2022-07-25T15:03:37;7.07;;;4.38;;
69569;SDS011;56781;42.292;23.146;2022-07-25T15:06:12;6.77;;;4.60;;
69569;SDS011;56781;42.292;23.146;2022-07-25T15:08:42;9.13;;;4.50;;
69569;SDS011;56781;42.292;23.146;2022-07-25T15:11:11;9.18;;;4.93;;
69569;SDS011;56781;42.292;23.146;2022-07-25T15:13:54;6.38;;;4.45;;